Time;durP1;ratioP1;P1;durP2;ratioP2;P2;SDS_P1;SDS_P2;PMS_P1;PMS_P2;Temp;Humidity;BMP_temperature;BMP_pressure;BME280_temperature;BME280_humidity;BME280_pressure;Samples;Min_cycle;Max_cycle;Signal;HPM_P1;HPM_P2
2023/05/05 00:01:01;;;;;;;31.70;16.90;;;;;;;-128.00;-1.00;-1.00;97992;296;1004989;-28
2023/05/05 00:03:26;;;;;;;24.60;15.80;;;;;;;-128.00;-1.00;-1.00;97826;296;1004192;-33
2023/05/05 00:05:56;;;;;;;21.40;11.60;;;;;;;-128.00;-1.00;-1.00;98000;296;1003152;-33
2023/05/05 00:08:22;;;;;;;21.50;13.20;;;;;;;-128.00;-1.00;-1.00;97939;296;1004428;-28
2023/05/05 00:10:49;;;;;;;22.40;7.50;;;;;;;-128.00;-1.00;-1.00;97835;296;1005430;-29
2023/05/05 00:13:15;;;;;;;18.70;10.30;;;;;;;-128.00;-1.00;-1.00;97878;288;1003047;-29
2023/05/05 00:15:41;;;;;;;9.90;6.50;;;;;;;-128.00;-1.00;-1.00;97904;296;1003576;-34
2023/05/05 00:18:07;;;;;;;15.20;7.30;;;;;;;-128.00;-1.00;-1.00;97909;296;1004174;-32
2023/05/05 00:20:32;;;;;;;19.60;10.60;;;;;;;-128.00;-1.00;-1.00;97869;296;1003232;-33
2023/05/05 00:22:58;;;;;;;34.20;21.20;;;;;;;-128.00;-1.00;-1.00;97747;296;1003173;-33
2023/05/05 00:25:24;;;;;;;19.50;12.80;;;;;;;-128.00;-1.00;-1.00;97793;296;1003261;-33
2023/05/05 00:27:49;;;;;;;27.50;15.70;;;;;;;-128.00;-1.00;-1.00;97919;296;1003398;-29
2023/05/05 00:30:15;;;;;;;27.10;15.70;;;;;;;-128.00;-1.00;-1.00;97882;296;1004001;-35
2023/05/05 00:32:40;;;;;;;19.80;7.20;;;;;;;-128.00;-1.00;-1.00;98001;296;1003020;-28
2023/05/05 00:35:07;;;;;;;11.00;5.80;;;;;;;-128.00;-1.00;-1.00;97758;297;1003379;-30
2023/05/05 00:37:33;;;;;;;25.20;11.60;;;;;;;-128.00;-1.00;-1.00;98041;296;1005024;-32
2023/05/05 00:39:58;;;;;;;24.40;15.10;;;;;;;-128.00;-1.00;-1.00;97763;297;1004225;-28
2023/05/05 00:42:25;;;;;;;20.40;14.20;;;;;;;-128.00;-1.00;-1.00;97800;296;1004695;-33
2023/05/05 00:44:51;;;;;;;19.90;11.40;;;;;;;-128.00;-1.00;-1.00;98013;296;1003433;-33
2023/05/05 00:47:17;;;;;;;12.60;8.40;;;;;;;-128.00;-1.00;-1.00;97993;296;1004138;-28
2023/05/05 00:49:42;;;;;;;16.80;9.30;;;;;;;-128.00;-1.00;-1.00;97878;296;1003792;-33
2023/05/05 00:52:08;;;;;;;13.70;8.30;;;;;;;-128.00;-1.00;-1.00;97105;285;1004021;-29
2023/05/05 00:54:34;;;;;;;11.70;8.00;;;;;;;-128.00;-1.00;-1.00;97819;285;1003342;-29
2023/05/05 00:57:01;;;;;;;19.00;10.90;;;;;;;-128.00;-1.00;-1.00;97908;296;1003146;-32
2023/05/05 00:59:28;;;;;;;15.20;10.60;;;;;;;-128.00;-1.00;-1.00;97864;285;1003355;-33
2023/05/05 01:01:55;;;;;;;16.30;8.80;;;;;;;-128.00;-1.00;-1.00;97964;296;1003298;-33
2023/05/05 01:04:21;;;;;;;17.70;9.80;;;;;;;-128.00;-1.00;-1.00;98005;289;1005043;-29
2023/05/05 01:07:05;;;;;;;21.50;10.90;;;;;;;-128.00;-1.00;-1.00;97875;285;1004755;-34
2023/05/05 01:09:38;;;;;;;18.30;8.10;;;;;;;-128.00;-1.00;-1.00;97122;296;1003641;-33
2023/05/05 01:12:14;;;;;;;20.50;15.00;;;;;;;-128.00;-1.00;-1.00;96580;296;1003409;-29
2023/05/05 01:14:42;;;;;;;24.30;14.10;;;;;;;-128.00;-1.00;-1.00;96383;285;1002966;-28
2023/05/05 01:17:20;;;;;;;18.40;12.20;;;;;;;-128.00;-1.00;-1.00;95788;296;1003452;-32
2023/05/05 01:19:58;;;;;;;21.10;9.10;;;;;;;-128.00;-1.00;-1.00;97981;296;1003056;-28
2023/05/05 01:22:26;;;;;;;14.50;8.00;;;;;;;-128.00;-1.00;-1.00;95785;285;1003138;-32
2023/05/05 01:25:18;;;;;;;11.10;6.70;;;;;;;-128.00;-1.00;-1.00;97200;285;1003390;-32
2023/05/05 01:27:58;;;;;;;13.40;7.50;;;;;;;-128.00;-1.00;-1.00;97845;285;1003106;-33
2023/05/05 01:30:48;;;;;;;19.10;8.20;;;;;;;-128.00;-1.00;-1.00;97798;296;1004241;-33
2023/05/05 01:33:14;;;;;;;11.70;7.50;;;;;;;-128.00;-1.00;-1.00;97830;297;1003343;-33
2023/05/05 01:35:43;;;;;;;8.00;4.90;;;;;;;-128.00;-1.00;-1.00;97833;296;1002807;-29
2023/05/05 01:38:12;;;;;;;11.30;5.90;;;;;;;-128.00;-1.00;-1.00;97877;285;1004108;-31
2023/05/05 01:40:40;;;;;;;16.00;7.70;;;;;;;-128.00;-1.00;-1.00;97984;285;1003063;-28
2023/05/05 01:43:06;;;;;;;9.90;7.00;;;;;;;-128.00;-1.00;-1.00;97948;285;1002831;-33
2023/05/05 01:45:34;;;;;;;12.70;6.60;;;;;;;-128.00;-1.00;-1.00;97935;285;1003681;-29
2023/05/05 01:48:00;;;;;;;13.90;7.20;;;;;;;-128.00;-1.00;-1.00;97888;285;1003075;-32
2023/05/05 01:50:27;;;;;;;14.40;9.30;;;;;;;-128.00;-1.00;-1.00;97858;296;1002831;-30
2023/05/05 01:52:52;;;;;;;18.60;9.10;;;;;;;-128.00;-1.00;-1.00;97872;285;1003431;-30
2023/05/05 01:55:18;;;;;;;13.80;7.60;;;;;;;-128.00;-1.00;-1.00;97909;296;1004490;-30
2023/05/05 01:57:44;;;;;;;13.30;7.30;;;;;;;-128.00;-1.00;-1.00;97840;285;1004350;-30
2023/05/05 02:00:10;;;;;;;15.10;7.60;;;;;;;-128.00;-1.00;-1.00;97818;296;1003512;-29
2023/05/05 02:02:37;;;;;;;14.00;7.50;;;;;;;-128.00;-1.00;-1.00;97838;285;1005043;-32
2023/05/05 02:05:04;;;;;;;13.00;7.20;;;;;;;-128.00;-1.00;-1.00;97862;296;1003372;-30
2023/05/05 02:07:30;;;;;;;9.70;6.40;;;;;;;-128.00;-1.00;-1.00;97764;285;1004062;-28
2023/05/05 02:09:55;;;;;;;13.50;6.20;;;;;;;-128.00;-1.00;-1.00;97891;296;1004668;-29
2023/05/05 02:12:21;;;;;;;13.70;8.00;;;;;;;-128.00;-1.00;-1.00;97983;296;1003171;-33
2023/05/05 02:14:46;;;;;;;13.40;6.80;;;;;;;-128.00;-1.00;-1.00;97915;296;1003694;-33
2023/05/05 02:17:12;;;;;;;11.10;5.90;;;;;;;-128.00;-1.00;-1.00;97909;285;1003020;-34
2023/05/05 02:19:39;;;;;;;15.10;6.60;;;;;;;-128.00;-1.00;-1.00;97909;285;1003076;-35
2023/05/05 02:22:05;;;;;;;16.80;6.50;;;;;;;-128.00;-1.00;-1.00;97877;296;1003123;-36
2023/05/05 02:24:30;;;;;;;11.60;6.50;;;;;;;-128.00;-1.00;-1.00;97855;296;1002757;-29
2023/05/05 02:26:57;;;;;;;11.50;7.20;;;;;;;-128.00;-1.00;-1.00;97929;285;1003769;-31
2023/05/05 02:29:28;;;;;;;11.80;7.00;;;;;;;-128.00;-1.00;-1.00;97982;285;1004113;-28
2023/05/05 02:31:54;;;;;;;10.00;6.10;;;;;;;-128.00;-1.00;-1.00;97889;296;1004691;-33
2023/05/05 02:34:22;;;;;;;13.00;6.70;;;;;;;-128.00;-1.00;-1.00;97939;285;1003478;-32
2023/05/05 02:36:49;;;;;;;18.30;7.90;;;;;;;-128.00;-1.00;-1.00;97951;285;1004166;-30
2023/05/05 02:39:20;;;;;;;12.50;7.60;;;;;;;-128.00;-1.00;-1.00;97876;285;1003063;-33
2023/05/05 02:41:46;;;;;;;15.40;8.80;;;;;;;-128.00;-1.00;-1.00;97820;285;1003392;-28
2023/05/05 02:44:12;;;;;;;18.00;10.10;;;;;;;-128.00;-1.00;-1.00;97814;298;1002892;-32
2023/05/05 02:46:37;;;;;;;16.10;11.30;;;;;;;-128.00;-1.00;-1.00;98050;296;1004004;-34
2023/05/05 02:49:03;;;;;;;12.30;6.60;;;;;;;-128.00;-1.00;-1.00;97971;285;1004091;-28
2023/05/05 02:51:29;;;;;;;14.20;7.60;;;;;;;-128.00;-1.00;-1.00;97962;296;1003108;-30
2023/05/05 02:53:55;;;;;;;10.30;7.80;;;;;;;-128.00;-1.00;-1.00;97886;285;1004204;-32
2023/05/05 02:56:38;;;;;;;26.40;16.90;;;;;;;-128.00;-1.00;-1.00;97915;285;1002998;-28
2023/05/05 02:59:27;;;;;;;20.40;15.20;;;;;;;-128.00;-1.00;-1.00;97919;296;1003855;-28
2023/05/05 03:02:14;;;;;;;12.40;9.70;;;;;;;-128.00;-1.00;-1.00;97906;296;1003272;-33
2023/05/05 03:04:41;;;;;;;15.60;8.50;;;;;;;-128.00;-1.00;-1.00;97944;296;1004480;-30
2023/05/05 03:07:10;;;;;;;15.90;11.20;;;;;;;-128.00;-1.00;-1.00;97906;285;1002658;-29
2023/05/05 03:09:38;;;;;;;15.80;11.90;;;;;;;-128.00;-1.00;-1.00;97899;296;1003525;-29
2023/05/05 03:12:06;;;;;;;14.80;10.60;;;;;;;-128.00;-1.00;-1.00;97887;285;1002918;-28
2023/05/05 03:14:40;;;;;;;12.50;8.20;;;;;;;-128.00;-1.00;-1.00;97865;296;1002985;-32
2023/05/05 03:17:05;;;;;;;22.00;8.30;;;;;;;-128.00;-1.00;-1.00;97898;285;1003126;-30
2023/05/05 03:19:31;;;;;;;15.40;8.80;;;;;;;-128.00;-1.00;-1.00;97873;285;1003075;-32
2023/05/05 03:21:57;;;;;;;12.20;7.40;;;;;;;-128.00;-1.00;-1.00;97883;285;1002892;-28
2023/05/05 03:24:23;;;;;;;11.60;6.70;;;;;;;-128.00;-1.00;-1.00;97795;297;1003441;-32
2023/05/05 03:26:49;;;;;;;14.40;7.90;;;;;;;-128.00;-1.00;-1.00;97854;285;1002866;-29
2023/05/05 03:29:14;;;;;;;11.70;7.00;;;;;;;-128.00;-1.00;-1.00;97896;285;1003284;-33
2023/05/05 03:31:40;;;;;;;11.40;7.70;;;;;;;-128.00;-1.00;-1.00;97947;296;1003597;-29
2023/05/05 03:34:06;;;;;;;13.90;7.60;;;;;;;-128.00;-1.00;-1.00;97904;296;1003093;-33
2023/05/05 03:36:33;;;;;;;16.40;8.30;;;;;;;-128.00;-1.00;-1.00;97836;297;1002705;-31
2023/05/05 03:38:59;;;;;;;10.20;7.60;;;;;;;-128.00;-1.00;-1.00;97823;297;1004055;-32
2023/05/05 03:41:25;;;;;;;15.70;8.60;;;;;;;-128.00;-1.00;-1.00;97787;298;1003714;-27
2023/05/05 03:43:51;;;;;;;14.30;9.20;;;;;;;-128.00;-1.00;-1.00;97905;296;1004151;-28
2023/05/05 03:46:16;;;;;;;11.70;6.40;;;;;;;-128.00;-1.00;-1.00;97841;285;1002550;-33
2023/05/05 03:48:42;;;;;;;20.30;7.10;;;;;;;-128.00;-1.00;-1.00;97822;296;1003963;-34
2023/05/05 03:51:08;;;;;;;13.60;7.30;;;;;;;-128.00;-1.00;-1.00;97872;297;1003741;-28
2023/05/05 03:53:34;;;;;;;17.60;6.80;;;;;;;-128.00;-1.00;-1.00;97929;285;1003126;-35
2023/05/05 03:56:00;;;;;;;9.40;6.00;;;;;;;-128.00;-1.00;-1.00;97803;296;1002881;-35
2023/05/05 03:58:25;;;;;;;8.60;6.50;;;;;;;-128.00;-1.00;-1.00;97910;285;1003270;-32
2023/05/05 04:00:51;;;;;;;24.90;6.50;;;;;;;-128.00;-1.00;-1.00;97869;285;1003398;-28
2023/05/05 04:03:16;;;;;;;16.70;7.80;;;;;;;-128.00;-1.00;-1.00;97743;296;1003742;-30
2023/05/05 04:05:42;;;;;;;16.50;8.10;;;;;;;-128.00;-1.00;-1.00;97837;285;1003880;-33
2023/05/05 04:08:08;;;;;;;15.20;8.40;;;;;;;-128.00;-1.00;-1.00;97898;285;1003095;-33
2023/05/05 04:10:33;;;;;;;10.40;6.30;;;;;;;-128.00;-1.00;-1.00;97866;296;1004043;-29
2023/05/05 04:12:59;;;;;;;15.80;7.60;;;;;;;-128.00;-1.00;-1.00;97798;285;1004230;-29
2023/05/05 04:15:24;;;;;;;13.70;7.40;;;;;;;-128.00;-1.00;-1.00;97876;296;1003742;-34
2023/05/05 04:17:50;;;;;;;13.70;10.20;;;;;;;-128.00;-1.00;-1.00;97828;296;1003902;-31
2023/05/05 04:20:16;;;;;;;19.50;12.70;;;;;;;-128.00;-1.00;-1.00;97920;285;1003037;-30
2023/05/05 04:22:42;;;;;;;11.00;8.40;;;;;;;-128.00;-1.00;-1.00;97920;285;1004417;-31
2023/05/05 04:25:07;;;;;;;16.80;7.80;;;;;;;-128.00;-1.00;-1.00;97817;296;1003328;-33
2023/05/05 04:27:33;;;;;;;16.00;6.50;;;;;;;-128.00;-1.00;-1.00;97884;285;1003007;-32
2023/05/05 04:29:59;;;;;;;17.20;5.20;;;;;;;-128.00;-1.00;-1.00;97938;296;1002942;-33
2023/05/05 04:32:25;;;;;;;11.00;6.00;;;;;;;-128.00;-1.00;-1.00;97748;285;1003148;-29
2023/05/05 04:34:51;;;;;;;13.60;6.20;;;;;;;-128.00;-1.00;-1.00;97818;285;1003536;-29
2023/05/05 04:37:17;;;;;;;11.30;6.10;;;;;;;-128.00;-1.00;-1.00;97723;296;1003181;-33
2023/05/05 05:18:18;;;;;;;10.80;6.90;;;;;;;-100.60;15.33;19967.76;98180;324;1543649;-32
2023/05/05 05:20:45;;;;;;;13.80;7.80;;;;;;;-128.00;-1.00;-1.00;97487;297;1003321;-30
2023/05/05 05:23:11;;;;;;;8.20;5.60;;;;;;;-128.00;-1.00;-1.00;97864;296;1004032;-30
2023/05/05 05:25:36;;;;;;;11.70;7.00;;;;;;;-128.00;-1.00;-1.00;97871;285;1003029;-36
2023/05/05 05:28:02;;;;;;;9.10;5.50;;;;;;;-128.00;-1.00;-1.00;97973;296;1003883;-31
2023/05/05 05:30:28;;;;;;;12.50;6.90;;;;;;;-128.00;-1.00;-1.00;97875;296;1002814;-35
2023/05/05 05:32:53;;;;;;;16.40;6.70;;;;;;;-128.00;-1.00;-1.00;97795;296;1003374;-34
2023/05/05 05:35:19;;;;;;;9.70;6.00;;;;;;;-128.00;-1.00;-1.00;97852;285;1003388;-29
2023/05/05 05:37:46;;;;;;;13.20;6.70;;;;;;;-128.00;-1.00;-1.00;97846;285;1004055;-34
2023/05/05 05:40:12;;;;;;;9.90;6.70;;;;;;;-128.00;-1.00;-1.00;97847;285;1004083;-34
2023/05/05 05:42:39;;;;;;;13.70;7.20;;;;;;;-128.00;-1.00;-1.00;97874;285;1003086;-33
2023/05/05 05:45:06;;;;;;;12.50;5.70;;;;;;;-128.00;-1.00;-1.00;97870;296;1003389;-33
2023/05/05 05:47:31;;;;;;;15.00;7.30;;;;;;;-128.00;-1.00;-1.00;97890;285;1004396;-29
2023/05/05 05:49:57;;;;;;;8.80;5.60;;;;;;;-128.00;-1.00;-1.00;97767;285;1002802;-33
2023/05/05 05:52:23;;;;;;;15.90;7.00;;;;;;;-128.00;-1.00;-1.00;97775;285;1003425;-33
2023/05/05 05:54:48;;;;;;;14.20;5.60;;;;;;;-128.00;-1.00;-1.00;97734;296;1003353;-33
2023/05/05 05:57:14;;;;;;;7.90;5.20;;;;;;;-128.00;-1.00;-1.00;97827;285;1002677;-36
2023/05/05 05:59:40;;;;;;;12.90;7.20;;;;;;;-128.00;-1.00;-1.00;97895;285;1003051;-38
2023/05/05 06:02:06;;;;;;;12.60;6.00;;;;;;;-128.00;-1.00;-1.00;97892;285;1003047;-30
2023/05/05 06:04:32;;;;;;;11.30;7.10;;;;;;;-128.00;-1.00;-1.00;97897;285;1004132;-34
2023/05/05 06:06:58;;;;;;;12.30;6.30;;;;;;;-128.00;-1.00;-1.00;97779;297;1002950;-32
2023/05/05 06:09:24;;;;;;;14.00;6.60;;;;;;;-128.00;-1.00;-1.00;97805;285;1003313;-30
2023/05/05 06:11:50;;;;;;;9.20;5.50;;;;;;;-128.00;-1.00;-1.00;97801;297;1003164;-30
2023/05/05 06:14:16;;;;;;;10.30;6.50;;;;;;;-128.00;-1.00;-1.00;97903;296;1002985;-31
2023/05/05 06:16:43;;;;;;;12.60;6.60;;;;;;;-128.00;-1.00;-1.00;97934;285;1002678;-34
2023/05/05 06:19:09;;;;;;;7.70;4.30;;;;;;;-128.00;-1.00;-1.00;97812;295;1003058;-31
2023/05/05 06:21:35;;;;;;;5.80;4.40;;;;;;;-128.00;-1.00;-1.00;97916;288;1003272;-34
2023/05/05 06:24:01;;;;;;;6.20;3.40;;;;;;;-128.00;-1.00;-1.00;97841;295;1003123;-29
2023/05/05 06:26:27;;;;;;;7.50;3.50;;;;;;;-128.00;-1.00;-1.00;97838;295;1002835;-38
2023/05/05 06:28:53;;;;;;;5.80;4.30;;;;;;;-128.00;-1.00;-1.00;97802;296;1003600;-31
2023/05/05 06:31:18;;;;;;;10.90;5.20;;;;;;;-128.00;-1.00;-1.00;97807;295;1003022;-30
2023/05/05 06:33:44;;;;;;;7.70;4.60;;;;;;;-128.00;-1.00;-1.00;97904;295;1004774;-35
2023/05/05 06:36:10;;;;;;;6.10;2.80;;;;;;;-128.00;-1.00;-1.00;97864;295;1003493;-31
2023/05/05 06:38:35;;;;;;;4.70;2.80;;;;;;;-128.00;-1.00;-1.00;97892;295;1003120;-35
2023/05/05 06:41:01;;;;;;;10.00;2.10;;;;;;;-128.00;-1.00;-1.00;97850;295;1003425;-32
2023/05/05 06:43:27;;;;;;;3.20;1.60;;;;;;;-128.00;-1.00;-1.00;97815;295;1003208;-36
2023/05/05 06:45:53;;;;;;;2.60;1.60;;;;;;;-128.00;-1.00;-1.00;97883;295;1002411;-32
2023/05/05 06:48:19;;;;;;;3.20;1.70;;;;;;;-128.00;-1.00;-1.00;97871;295;1003271;-34
2023/05/05 06:50:44;;;;;;;4.20;1.40;;;;;;;-128.00;-1.00;-1.00;97824;295;1003371;-31
2023/05/05 06:53:10;;;;;;;2.50;1.20;;;;;;;-128.00;-1.00;-1.00;97951;295;1003093;-36
2023/05/05 06:55:36;;;;;;;3.20;1.40;;;;;;;-128.00;-1.00;-1.00;97969;295;1002910;-32
2023/05/05 06:58:01;;;;;;;3.40;1.40;;;;;;;-128.00;-1.00;-1.00;97939;295;1003216;-34
2023/05/05 07:00:27;;;;;;;1.30;0.90;;;;;;;-128.00;-1.00;-1.00;97868;295;1003393;-34
2023/05/05 07:02:53;;;;;;;2.30;1.20;;;;;;;-128.00;-1.00;-1.00;97871;295;1003351;-33
2023/05/05 07:05:18;;;;;;;3.10;1.10;;;;;;;-128.00;-1.00;-1.00;97820;295;1003259;-31
2023/05/05 07:07:54;;;;;;;2.60;1.20;;;;;;;-128.00;-1.00;-1.00;97901;296;1003994;-35
2023/05/05 07:10:21;;;;;;;2.50;1.20;;;;;;;-128.00;-1.00;-1.00;97851;290;1003314;-31
2023/05/05 07:12:47;;;;;;;2.30;1.00;;;;;;;-128.00;-1.00;-1.00;97875;295;1004337;-31
2023/05/05 07:15:12;;;;;;;2.00;1.10;;;;;;;-128.00;-1.00;-1.00;97743;295;1003000;-31
2023/05/05 07:17:38;;;;;;;1.70;1.00;;;;;;;-128.00;-1.00;-1.00;97936;295;1003817;-31
2023/05/05 07:20:04;;;;;;;2.10;1.30;;;;;;;-128.00;-1.00;-1.00;97823;295;1003058;-31
2023/05/05 07:22:30;;;;;;;5.80;1.40;;;;;;;-128.00;-1.00;-1.00;97795;295;1003007;-35
2023/05/05 07:24:56;;;;;;;3.00;1.70;;;;;;;-128.00;-1.00;-1.00;97772;296;1003555;-35
2023/05/05 07:27:21;;;;;;;2.00;1.40;;;;;;;-128.00;-1.00;-1.00;97893;295;1003812;-32
2023/05/05 07:29:47;;;;;;;3.90;1.50;;;;;;;-128.00;-1.00;-1.00;97843;297;1003276;-31
2023/05/05 07:32:13;;;;;;;3.60;1.70;;;;;;;-128.00;-1.00;-1.00;97825;295;1002740;-35
2023/05/05 07:34:39;;;;;;;2.30;1.40;;;;;;;-128.00;-1.00;-1.00;97923;295;1003438;-34
2023/05/05 07:37:05;;;;;;;2.50;1.20;;;;;;;-128.00;-1.00;-1.00;97781;295;1003235;-36
2023/05/05 07:39:31;;;;;;;3.30;1.90;;;;;;;-128.00;-1.00;-1.00;97912;295;1003202;-34
2023/05/05 07:41:57;;;;;;;3.20;1.40;;;;;;;-128.00;-1.00;-1.00;97982;295;1002638;-31
2023/05/05 07:44:22;;;;;;;1.50;1.10;;;;;;;-128.00;-1.00;-1.00;97914;295;1003565;-34
2023/05/05 07:46:48;;;;;;;3.00;1.40;;;;;;;-128.00;-1.00;-1.00;97766;297;1003777;-31
2023/05/05 07:49:14;;;;;;;2.00;1.50;;;;;;;-128.00;-1.00;-1.00;97841;288;1003363;-34
2023/05/05 07:51:39;;;;;;;1.80;1.00;;;;;;;-128.00;-1.00;-1.00;97746;286;1003173;-31
2023/05/05 07:54:05;;;;;;;2.10;1.00;;;;;;;-128.00;-1.00;-1.00;97832;288;1003955;-30
2023/05/05 07:56:30;;;;;;;1.70;1.30;;;;;;;-128.00;-1.00;-1.00;97923;295;1004127;-30
2023/05/05 07:58:56;;;;;;;2.60;1.50;;;;;;;-128.00;-1.00;-1.00;97801;295;1003355;-30
2023/05/05 08:01:22;;;;;;;4.30;1.50;;;;;;;-128.00;-1.00;-1.00;97869;284;1003172;-30
2023/05/05 08:03:47;;;;;;;2.20;1.40;;;;;;;-128.00;-1.00;-1.00;97924;295;1004825;-33
2023/05/05 08:06:20;;;;;;;1.40;1.10;;;;;;;-128.00;-1.00;-1.00;97948;295;1003436;-29
2023/05/05 08:08:47;;;;;;;1.70;1.00;;;;;;;-128.00;-1.00;-1.00;97878;295;1003482;-34
2023/05/05 08:11:14;;;;;;;4.20;1.20;;;;;;;-128.00;-1.00;-1.00;97891;295;1002990;-31
2023/05/05 08:13:44;;;;;;;1.80;1.20;;;;;;;-128.00;-1.00;-1.00;97833;295;1003152;-31
2023/05/05 08:16:10;;;;;;;2.00;1.10;;;;;;;-128.00;-1.00;-1.00;97799;298;1002779;-35
2023/05/05 08:18:37;;;;;;;1.80;1.20;;;;;;;-128.00;-1.00;-1.00;97768;298;1002768;-35
2023/05/05 08:21:04;;;;;;;9.20;1.20;;;;;;;-128.00;-1.00;-1.00;97790;284;1004014;-31
2023/05/05 08:23:30;;;;;;;1.70;1.30;;;;;;;-128.00;-1.00;-1.00;97886;295;1005566;-35
2023/05/05 08:25:55;;;;;;;1.70;1.20;;;;;;;-128.00;-1.00;-1.00;97884;295;1003016;-31
2023/05/05 08:28:21;;;;;;;4.30;1.60;;;;;;;-128.00;-1.00;-1.00;97731;295;1003300;-33
2023/05/05 08:30:48;;;;;;;1.30;0.70;;;;;;;-128.00;-1.00;-1.00;97943;295;1004028;-30
2023/05/05 08:33:14;;;;;;;1.70;1.30;;;;;;;-128.00;-1.00;-1.00;97864;295;1003713;-33
2023/05/05 08:35:41;;;;;;;0.80;0.70;;;;;;;-128.00;-1.00;-1.00;97969;295;1004529;-30
2023/05/05 08:38:06;;;;;;;2.80;1.20;;;;;;;-128.00;-1.00;-1.00;97787;295;1002913;-35
2023/05/05 08:40:35;;;;;;;2.90;0.80;;;;;;;-128.00;-1.00;-1.00;97904;288;1003607;-34
2023/05/05 08:43:01;;;;;;;1.80;1.20;;;;;;;-128.00;-1.00;-1.00;97775;296;1003257;-31
2023/05/05 08:45:27;;;;;;;2.50;1.00;;;;;;;-128.00;-1.00;-1.00;97754;295;1003247;-30
2023/05/05 08:47:59;;;;;;;1.20;1.00;;;;;;;-128.00;-1.00;-1.00;97904;296;1002575;-36
2023/05/05 08:50:26;;;;;;;2.00;1.00;;;;;;;-128.00;-1.00;-1.00;97803;296;1003382;-32
2023/05/05 08:52:56;;;;;;;1.50;0.80;;;;;;;-128.00;-1.00;-1.00;97947;296;1003111;-36
2023/05/05 08:55:24;;;;;;;1.70;1.10;;;;;;;-128.00;-1.00;-1.00;97877;288;1004192;-31
2023/05/05 08:57:51;;;;;;;6.70;1.00;;;;;;;-128.00;-1.00;-1.00;97774;296;1005204;-32
2023/05/05 09:00:18;;;;;;;1.50;1.00;;;;;;;-128.00;-1.00;-1.00;97900;296;1002838;-36
2023/05/05 09:02:44;;;;;;;2.10;0.50;;;;;;;-128.00;-1.00;-1.00;97936;296;1003385;-30
2023/05/05 09:05:10;;;;;;;1.50;0.90;;;;;;;-128.00;-1.00;-1.00;97838;296;1003298;-30
2023/05/05 09:07:35;;;;;;;0.70;0.70;;;;;;;-128.00;-1.00;-1.00;97836;296;1003401;-33
2023/05/05 09:10:05;;;;;;;1.60;0.90;;;;;;;-128.00;-1.00;-1.00;97923;288;1003537;-30
2023/05/05 09:12:30;;;;;;;2.10;0.70;;;;;;;-128.00;-1.00;-1.00;97857;296;1003814;-30
2023/05/05 09:14:56;;;;;;;2.50;0.70;;;;;;;-128.00;-1.00;-1.00;97958;296;1003983;-32
2023/05/05 09:17:24;;;;;;;2.40;0.90;;;;;;;-128.00;-1.00;-1.00;97791;284;1002786;-30
2023/05/05 09:20:03;;;;;;;1.50;0.70;;;;;;;-128.00;-1.00;-1.00;97857;296;1003867;-33
2023/05/05 09:22:37;;;;;;;1.10;0.90;;;;;;;-128.00;-1.00;-1.00;98059;296;1003890;-30
2023/05/05 09:25:07;;;;;;;3.00;1.00;;;;;;;-128.00;-1.00;-1.00;97758;296;1002820;-30
2023/05/05 09:27:37;;;;;;;3.40;1.10;;;;;;;-128.00;-1.00;-1.00;97835;296;1002662;-34
2023/05/05 09:30:04;;;;;;;4.50;1.80;;;;;;;-128.00;-1.00;-1.00;97944;296;1003534;-34
2023/05/05 09:32:42;;;;;;;2.60;1.10;;;;;;;-128.00;-1.00;-1.00;97782;296;1003750;-36
2023/05/05 09:35:08;;;;;;;3.70;1.00;;;;;;;-128.00;-1.00;-1.00;97893;296;1003698;-31
2023/05/05 09:37:33;;;;;;;2.70;1.10;;;;;;;-128.00;-1.00;-1.00;97858;296;1004020;-35
2023/05/05 09:39:59;;;;;;;2.90;0.80;;;;;;;-128.00;-1.00;-1.00;97977;296;1003319;-35
2023/05/05 09:42:26;;;;;;;1.20;0.90;;;;;;;-128.00;-1.00;-1.00;97790;296;1003027;-38
2023/05/05 09:44:52;;;;;;;1.90;1.20;;;;;;;-128.00;-1.00;-1.00;97877;296;1003996;-33
2023/05/05 09:47:18;;;;;;;2.20;1.40;;;;;;;-128.00;-1.00;-1.00;97813;284;1003308;-30
2023/05/05 09:49:43;;;;;;;2.10;1.20;;;;;;;-128.00;-1.00;-1.00;97776;297;1003272;-33
2023/05/05 09:52:14;;;;;;;1.20;0.90;;;;;;;-128.00;-1.00;-1.00;97767;296;1003111;-30
2023/05/05 09:54:43;;;;;;;2.30;1.20;;;;;;;-128.00;-1.00;-1.00;97905;295;1003296;-34
2023/05/05 09:57:24;;;;;;;1.00;0.80;;;;;;;-128.00;-1.00;-1.00;97760;295;1003028;-34
2023/05/05 09:59:55;;;;;;;1.80;1.00;;;;;;;-128.00;-1.00;-1.00;97804;295;1003048;-31
2023/05/05 10:02:21;;;;;;;3.60;1.20;;;;;;;-128.00;-1.00;-1.00;97838;284;1004328;-34
2023/05/05 10:04:46;;;;;;;1.80;1.00;;;;;;;-128.00;-1.00;-1.00;97785;295;1003401;-34
2023/05/05 10:07:21;;;;;;;1.90;1.30;;;;;;;-128.00;-1.00;-1.00;97783;296;1003038;-30
2023/05/05 10:09:47;;;;;;;3.80;1.20;;;;;;;-128.00;-1.00;-1.00;97990;295;1003080;-34
2023/05/05 10:12:12;;;;;;;2.00;1.00;;;;;;;-128.00;-1.00;-1.00;97743;295;1003636;-35
2023/05/05 10:14:38;;;;;;;1.80;1.00;;;;;;;-128.00;-1.00;-1.00;97815;295;1002956;-33
2023/05/05 10:17:04;;;;;;;10.70;2.70;;;;;;;-128.00;-1.00;-1.00;97920;295;1002896;-31
2023/05/05 10:19:31;;;;;;;2.50;1.20;;;;;;;-128.00;-1.00;-1.00;97773;295;1004104;-31
2023/05/05 10:22:00;;;;;;;1.30;1.10;;;;;;;-128.00;-1.00;-1.00;97825;295;1003093;-35
2023/05/05 10:24:39;;;;;;;1.20;0.60;;;;;;;-128.00;-1.00;-1.00;97965;295;1003068;-31
2023/05/05 10:27:15;;;;;;;6.60;1.30;;;;;;;-128.00;-1.00;-1.00;97893;295;1003129;-35
2023/05/05 10:29:49;;;;;;;1.90;1.00;;;;;;;-128.00;-1.00;-1.00;97810;295;1003728;-35
2023/05/05 10:32:21;;;;;;;1.10;0.80;;;;;;;-128.00;-1.00;-1.00;97859;295;1003301;-35
2023/05/05 10:34:50;;;;;;;1.20;0.90;;;;;;;-128.00;-1.00;-1.00;97757;295;1003067;-31
2023/05/05 10:37:17;;;;;;;2.30;1.20;;;;;;;-128.00;-1.00;-1.00;97817;296;1003160;-31
2023/05/05 10:39:44;;;;;;;8.90;1.20;;;;;;;-128.00;-1.00;-1.00;97772;296;1003172;-31
2023/05/05 10:42:11;;;;;;;3.10;1.00;;;;;;;-128.00;-1.00;-1.00;97804;296;1004667;-35
2023/05/05 10:44:37;;;;;;;1.90;0.60;;;;;;;-128.00;-1.00;-1.00;97908;295;1003467;-34
2023/05/05 10:47:02;;;;;;;1.70;0.90;;;;;;;-128.00;-1.00;-1.00;97799;295;1003715;-31
2023/05/05 10:49:35;;;;;;;2.30;0.70;;;;;;;-128.00;-1.00;-1.00;97911;284;1002419;-33
2023/05/05 10:52:12;;;;;;;;;;;;;;;-128.00;-1.00;-1.00;97911;295;1003689;-35
2023/05/05 10:55:00;;;;;;;2.90;1.40;;;;;;;-128.00;-1.00;-1.00;97859;295;1003127;-35
2023/05/05 10:57:26;;;;;;;2.80;0.90;;;;;;;-128.00;-1.00;-1.00;97904;295;1003524;-35
2023/05/05 10:59:51;;;;;;;1.60;1.00;;;;;;;-128.00;-1.00;-1.00;97738;297;1003150;-34
2023/05/05 11:02:23;;;;;;;2.30;1.30;;;;;;;-128.00;-1.00;-1.00;97720;296;1003226;-35
2023/05/05 11:05:04;;;;;;;4.40;1.20;;;;;;;-128.00;-1.00;-1.00;97835;297;1003726;-35
2023/05/05 11:50:15;;;;;;;2.50;2.30;;;;;;;-97.64;4.63;19952.23;98120;295;1545641;-30
2023/05/05 11:52:42;;;;;;;2.00;1.00;;;;;;;-128.00;-1.00;-1.00;97262;296;1004841;-34
2023/05/05 11:55:08;;;;;;;1.40;1.10;;;;;;;-128.00;-1.00;-1.00;97670;295;1004397;-30
2023/05/05 11:57:33;;;;;;;2.10;1.70;;;;;;;-128.00;-1.00;-1.00;97549;295;1006885;-30
2023/05/05 12:00:01;;;;;;;1.40;1.00;;;;;;;-128.00;-1.00;-1.00;97737;295;1006006;-30
2023/05/05 12:02:28;;;;;;;3.30;1.40;;;;;;;-128.00;-1.00;-1.00;97625;295;1005334;-37
2023/05/05 12:04:54;;;;;;;1.10;0.90;;;;;;;-128.00;-1.00;-1.00;97041;295;1004554;-36
2023/05/05 12:07:21;;;;;;;2.70;1.60;;;;;;;-128.00;-1.00;-1.00;97697;295;1005428;-35
2023/05/05 12:09:47;;;;;;;1.30;0.70;;;;;;;-128.00;-1.00;-1.00;97724;295;1004983;-31
2023/05/05 12:12:13;;;;;;;2.10;1.10;;;;;;;-128.00;-1.00;-1.00;97720;295;1005746;-33
2023/05/05 12:14:47;;;;;;;3.90;1.10;;;;;;;-128.00;-1.00;-1.00;97773;295;1005255;-31
2023/05/05 12:17:12;;;;;;;8.50;1.70;;;;;;;-128.00;-1.00;-1.00;97731;295;1004355;-33
2023/05/05 12:19:50;;;;;;;2.80;0.80;;;;;;;-128.00;-1.00;-1.00;97675;295;1005552;-35
2023/05/05 12:22:23;;;;;;;2.50;1.20;;;;;;;-128.00;-1.00;-1.00;97705;295;1005363;-31
2023/05/05 12:24:56;;;;;;;1.90;1.10;;;;;;;-128.00;-1.00;-1.00;97617;284;1005061;-31
2023/05/05 12:27:22;;;;;;;1.10;0.60;;;;;;;-128.00;-1.00;-1.00;97652;295;1005247;-35
2023/05/05 12:29:48;;;;;;;1.80;1.00;;;;;;;-128.00;-1.00;-1.00;97670;295;1005429;-30
2023/05/05 12:32:21;;;;;;;2.00;1.30;;;;;;;-128.00;-1.00;-1.00;97757;295;1005421;-34
2023/05/05 12:34:48;;;;;;;2.50;0.80;;;;;;;-128.00;-1.00;-1.00;97664;295;1005831;-35
2023/05/05 12:37:15;;;;;;;1.10;0.90;;;;;;;-128.00;-1.00;-1.00;97785;295;1005473;-34
2023/05/05 12:39:41;;;;;;;1.80;1.30;;;;;;;-128.00;-1.00;-1.00;97601;285;1005096;-35
2023/05/05 12:42:06;;;;;;;2.50;1.10;;;;;;;-128.00;-1.00;-1.00;97756;295;1004612;-30
2023/05/05 12:44:36;;;;;;;2.10;1.40;;;;;;;-128.00;-1.00;-1.00;97698;295;1005222;-35
2023/05/05 12:47:01;;;;;;;1.90;1.30;;;;;;;-128.00;-1.00;-1.00;97579;295;1005318;-30
2023/05/05 12:49:27;;;;;;;1.10;0.70;;;;;;;-128.00;-1.00;-1.00;97818;295;1005360;-35
2023/05/05 12:51:54;;;;;;;2.40;0.80;;;;;;;-128.00;-1.00;-1.00;97597;295;1005870;-33